sensor_id;sensor_type;location;lat;lon;timestamp;P1;durP1;ratioP1;P2;durP2;ratioP2
80677;SDS011;70042;52.494;5.502;2024-01-10T00:01:16;2.13;;;1.73;;
80677;SDS011;70042;52.494;5.502;2024-01-10T00:06:07;3.13;;;2.15;;
80677;SDS011;70042;52.494;5.502;2024-01-10T00:08:33;3.67;;;1.92;;
80677;SDS011;70042;52.494;5.502;2024-01-10T00:10:58;2.50;;;1.73;;
80677;SDS011;70042;52.494;5.502;2024-01-10T00:13:24;2.70;;;2.05;;
80677;SDS011;70042;52.494;5.502;2024-01-10T00:15:49;3.40;;;2.08;;
80677;SDS011;70042;52.494;5.502;2024-01-10T00:18:15;2.65;;;1.50;;
80677;SDS011;70042;52.494;5.502;2024-01-10T00:20:40;3.13;;;2.42;;
80677;SDS011;70042;52.494;5.502;2024-01-10T00:23:06;3.88;;;2.40;;
80677;SDS011;70042;52.494;5.502;2024-01-10T00:25:32;2.88;;;1.75;;
80677;SDS011;70042;52.494;5.502;2024-01-10T00:27:58;3.28;;;2.05;;
80677;SDS011;70042;52.494;5.502;2024-01-10T00:30:25;3.20;;;1.90;;
80677;SDS011;70042;52.494;5.502;2024-01-10T00:32:50;3.83;;;2.25;;
80677;SDS011;70042;52.494;5.502;2024-01-10T00:35:16;3.55;;;2.50;;
80677;SDS011;70042;52.494;5.502;2024-01-10T00:37:41;4.15;;;2.30;;
80677;SDS011;70042;52.494;5.502;2024-01-10T00:40:07;3.70;;;2.25;;
80677;SDS011;70042;52.494;5.502;2024-01-10T00:42:33;2.95;;;2.00;;
80677;SDS011;70042;52.494;5.502;2024-01-10T00:44:58;3.08;;;2.03;;
80677;SDS011;70042;52.494;5.502;2024-01-10T00:47:24;3.53;;;1.90;;
80677;SDS011;70042;52.494;5.502;2024-01-10T00:49:49;3.25;;;2.20;;
80677;SDS011;70042;52.494;5.502;2024-01-10T00:52:15;3.13;;;2.20;;
80677;SDS011;70042;52.494;5.502;2024-01-10T00:54:40;3.15;;;2.45;;
80677;SDS011;70042;52.494;5.502;2024-01-10T00:57:06;3.28;;;2.53;;
80677;SDS011;70042;52.494;5.502;2024-01-10T00:59:31;3.03;;;1.90;;
80677;SDS011;70042;52.494;5.502;2024-01-10T01:01:56;2.75;;;1.77;;
80677;SDS011;70042;52.494;5.502;2024-01-10T01:04:22;3.90;;;2.55;;
80677;SDS011;70042;52.494;5.502;2024-01-10T01:06:47;3.45;;;2.50;;
80677;SDS011;70042;52.494;5.502;2024-01-10T01:09:13;3.53;;;2.08;;
80677;SDS011;70042;52.494;5.502;2024-01-10T01:11:40;3.78;;;2.50;;
80677;SDS011;70042;52.494;5.502;2024-01-10T01:14:06;3.10;;;2.10;;
80677;SDS011;70042;52.494;5.502;2024-01-10T01:18:58;3.60;;;2.55;;
80677;SDS011;70042;52.494;5.502;2024-01-10T01:21:23;2.40;;;1.98;;
80677;SDS011;70042;52.494;5.502;2024-01-10T01:23:48;3.45;;;2.63;;
80677;SDS011;70042;52.494;5.502;2024-01-10T01:26:14;4.35;;;2.60;;
80677;SDS011;70042;52.494;5.502;2024-01-10T01:28:40;3.28;;;2.30;;
80677;SDS011;70042;52.494;5.502;2024-01-10T01:31:05;3.42;;;2.20;;
80677;SDS011;70042;52.494;5.502;2024-01-10T01:33:31;3.45;;;2.30;;
80677;SDS011;70042;52.494;5.502;2024-01-10T01:35:56;3.67;;;2.88;;
80677;SDS011;70042;52.494;5.502;2024-01-10T01:38:22;3.83;;;2.47;;
80677;SDS011;70042;52.494;5.502;2024-01-10T01:40:47;2.80;;;2.20;;
80677;SDS011;70042;52.494;5.502;2024-01-10T01:43:23;3.95;;;2.58;;
80677;SDS011;70042;52.494;5.502;2024-01-10T01:45:53;3.85;;;2.58;;
80677;SDS011;70042;52.494;5.502;2024-01-10T01:48:20;3.10;;;2.45;;
80677;SDS011;70042;52.494;5.502;2024-01-10T01:50:47;3.45;;;2.50;;
80677;SDS011;70042;52.494;5.502;2024-01-10T01:53:15;4.22;;;2.60;;
80677;SDS011;70042;52.494;5.502;2024-01-10T01:55:43;3.20;;;2.33;;
80677;SDS011;70042;52.494;5.502;2024-01-10T01:58:09;3.47;;;2.40;;
80677;SDS011;70042;52.494;5.502;2024-01-10T02:00:35;4.75;;;2.75;;
80677;SDS011;70042;52.494;5.502;2024-01-10T02:05:27;3.65;;;2.40;;
80677;SDS011;70042;52.494;5.502;2024-01-10T02:07:56;3.63;;;2.20;;
80677;SDS011;70042;52.494;5.502;2024-01-10T02:10:22;4.22;;;2.95;;
80677;SDS011;70042;52.494;5.502;2024-01-10T02:12:47;4.15;;;2.38;;
80677;SDS011;70042;52.494;5.502;2024-01-10T02:15:13;3.30;;;2.58;;
80677;SDS011;70042;52.494;5.502;2024-01-10T02:17:39;3.50;;;2.25;;
80677;SDS011;70042;52.494;5.502;2024-01-10T02:20:15;3.35;;;2.53;;
80677;SDS011;70042;52.494;5.502;2024-01-10T02:22:42;3.83;;;2.97;;
80677;SDS011;70042;52.494;5.502;2024-01-10T02:25:11;3.03;;;2.40;;
80677;SDS011;70042;52.494;5.502;2024-01-10T02:27:37;4.05;;;2.85;;
80677;SDS011;70042;52.494;5.502;2024-01-10T02:30:03;4.20;;;3.10;;
80677;SDS011;70042;52.494;5.502;2024-01-10T02:32:30;4.20;;;3.10;;
80677;SDS011;70042;52.494;5.502;2024-01-10T02:34:56;3.60;;;2.90;;
80677;SDS011;70042;52.494;5.502;2024-01-10T02:37:21;3.55;;;2.55;;
80677;SDS011;70042;52.494;5.502;2024-01-10T02:39:47;4.10;;;2.45;;
80677;SDS011;70042;52.494;5.502;2024-01-10T02:42:12;3.10;;;2.63;;
80677;SDS011;70042;52.494;5.502;2024-01-10T02:44:38;4.35;;;3.13;;
80677;SDS011;70042;52.494;5.502;2024-01-10T02:47:04;3.55;;;2.60;;
80677;SDS011;70042;52.494;5.502;2024-01-10T02:49:30;4.13;;;2.88;;
80677;SDS011;70042;52.494;5.502;2024-01-10T02:51:55;3.85;;;2.92;;
80677;SDS011;70042;52.494;5.502;2024-01-10T02:54:21;3.42;;;2.40;;
80677;SDS011;70042;52.494;5.502;2024-01-10T02:56:46;3.33;;;2.50;;
80677;SDS011;70042;52.494;5.502;2024-01-10T02:59:12;3.63;;;2.70;;
80677;SDS011;70042;52.494;5.502;2024-01-10T03:01:37;3.67;;;2.47;;
80677;SDS011;70042;52.494;5.502;2024-01-10T03:04:02;3.90;;;2.53;;
80677;SDS011;70042;52.494;5.502;2024-01-10T03:06:28;4.20;;;2.90;;
80677;SDS011;70042;52.494;5.502;2024-01-10T03:08:54;3.80;;;2.58;;
80677;SDS011;70042;52.494;5.502;2024-01-10T03:11:20;4.00;;;2.70;;
80677;SDS011;70042;52.494;5.502;2024-01-10T03:13:46;4.53;;;2.83;;
80677;SDS011;70042;52.494;5.502;2024-01-10T03:18:37;4.13;;;2.78;;
80677;SDS011;70042;52.494;5.502;2024-01-10T03:21:03;3.92;;;2.75;;
80677;SDS011;70042;52.494;5.502;2024-01-10T03:23:28;3.95;;;2.92;;
80677;SDS011;70042;52.494;5.502;2024-01-10T03:25:55;3.70;;;3.15;;
80677;SDS011;70042;52.494;5.502;2024-01-10T03:28:21;3.90;;;2.58;;
80677;SDS011;70042;52.494;5.502;2024-01-10T03:30:46;3.20;;;2.55;;
80677;SDS011;70042;52.494;5.502;2024-01-10T03:33:12;3.28;;;2.80;;
80677;SDS011;70042;52.494;5.502;2024-01-10T03:35:37;3.65;;;2.70;;
80677;SDS011;70042;52.494;5.502;2024-01-10T03:38:03;4.88;;;2.70;;
80677;SDS011;70042;52.494;5.502;2024-01-10T03:40:29;3.42;;;2.67;;
80677;SDS011;70042;52.494;5.502;2024-01-10T03:42:54;3.10;;;2.67;;
80677;SDS011;70042;52.494;5.502;2024-01-10T03:45:20;4.07;;;2.97;;
80677;SDS011;70042;52.494;5.502;2024-01-10T03:47:48;3.65;;;2.58;;
80677;SDS011;70042;52.494;5.502;2024-01-10T03:50:17;3.97;;;2.85;;
80677;SDS011;70042;52.494;5.502;2024-01-10T03:52:44;3.05;;;2.70;;
80677;SDS011;70042;52.494;5.502;2024-01-10T03:55:09;2.85;;;2.38;;
80677;SDS011;70042;52.494;5.502;2024-01-10T03:57:35;3.55;;;2.60;;
80677;SDS011;70042;52.494;5.502;2024-01-10T04:00:01;4.68;;;3.53;;
80677;SDS011;70042;52.494;5.502;2024-01-10T04:02:26;2.95;;;2.40;;
80677;SDS011;70042;52.494;5.502;2024-01-10T04:04:53;4.28;;;2.75;;
80677;SDS011;70042;52.494;5.502;2024-01-10T04:07:18;3.83;;;2.20;;
80677;SDS011;70042;52.494;5.502;2024-01-10T04:09:44;4.35;;;2.78;;
80677;SDS011;70042;52.494;5.502;2024-01-10T04:12:10;5.95;;;2.63;;
80677;SDS011;70042;52.494;5.502;2024-01-10T04:14:35;3.30;;;2.80;;
80677;SDS011;70042;52.494;5.502;2024-01-10T04:17:01;4.45;;;2.75;;
80677;SDS011;70042;52.494;5.502;2024-01-10T04:19:26;4.25;;;3.00;;
80677;SDS011;70042;52.494;5.502;2024-01-10T04:21:52;3.80;;;2.45;;
80677;SDS011;70042;52.494;5.502;2024-01-10T04:24:18;3.45;;;2.72;;
80677;SDS011;70042;52.494;5.502;2024-01-10T04:26:43;3.60;;;2.70;;
80677;SDS011;70042;52.494;5.502;2024-01-10T04:29:09;3.30;;;2.88;;
80677;SDS011;70042;52.494;5.502;2024-01-10T04:31:34;3.85;;;2.65;;
80677;SDS011;70042;52.494;5.502;2024-01-10T04:34:01;3.55;;;2.83;;
80677;SDS011;70042;52.494;5.502;2024-01-10T04:36:26;2.90;;;2.60;;
80677;SDS011;70042;52.494;5.502;2024-01-10T04:38:53;4.03;;;2.65;;
80677;SDS011;70042;52.494;5.502;2024-01-10T04:41:19;3.97;;;2.50;;
80677;SDS011;70042;52.494;5.502;2024-01-10T04:43:44;3.83;;;2.78;;
80677;SDS011;70042;52.494;5.502;2024-01-10T04:46:10;3.75;;;2.58;;
80677;SDS011;70042;52.494;5.502;2024-01-10T04:48:36;4.53;;;3.08;;
80677;SDS011;70042;52.494;5.502;2024-01-10T04:51:02;4.90;;;2.97;;
80677;SDS011;70042;52.494;5.502;2024-01-10T04:53:27;3.53;;;2.63;;
80677;SDS011;70042;52.494;5.502;2024-01-10T04:55:53;4.22;;;2.85;;
80677;SDS011;70042;52.494;5.502;2024-01-10T04:58:18;3.38;;;2.78;;
80677;SDS011;70042;52.494;5.502;2024-01-10T05:00:44;4.63;;;2.80;;
80677;SDS011;70042;52.494;5.502;2024-01-10T05:03:09;3.60;;;2.70;;
80677;SDS011;70042;52.494;5.502;2024-01-10T05:05:37;4.10;;;2.60;;
80677;SDS011;70042;52.494;5.502;2024-01-10T05:08:03;3.45;;;2.78;;
80677;SDS011;70042;52.494;5.502;2024-01-10T05:10:29;3.58;;;2.83;;
80677;SDS011;70042;52.494;5.502;2024-01-10T05:12:54;3.38;;;2.72;;
80677;SDS011;70042;52.494;5.502;2024-01-10T05:15:19;3.83;;;2.40;;
80677;SDS011;70042;52.494;5.502;2024-01-10T05:17:45;4.13;;;2.80;;
80677;SDS011;70042;52.494;5.502;2024-01-10T05:20:10;3.53;;;2.42;;
80677;SDS011;70042;52.494;5.502;2024-01-10T05:22:36;3.25;;;2.53;;
80677;SDS011;70042;52.494;5.502;2024-01-10T05:25:02;3.33;;;2.30;;
80677;SDS011;70042;52.494;5.502;2024-01-10T05:27:27;6.13;;;2.65;;
80677;SDS011;70042;52.494;5.502;2024-01-10T05:29:53;3.22;;;2.60;;
80677;SDS011;70042;52.494;5.502;2024-01-10T05:32:18;3.45;;;2.60;;
80677;SDS011;70042;52.494;5.502;2024-01-10T05:34:44;3.75;;;2.45;;
80677;SDS011;70042;52.494;5.502;2024-01-10T05:37:10;3.30;;;2.55;;
80677;SDS011;70042;52.494;5.502;2024-01-10T05:39:35;3.45;;;2.38;;
80677;SDS011;70042;52.494;5.502;2024-01-10T05:42:01;2.60;;;2.20;;
80677;SDS011;70042;52.494;5.502;2024-01-10T05:44:29;2.65;;;2.17;;
80677;SDS011;70042;52.494;5.502;2024-01-10T05:46:54;2.70;;;2.30;;
80677;SDS011;70042;52.494;5.502;2024-01-10T05:49:19;3.35;;;2.50;;
80677;SDS011;70042;52.494;5.502;2024-01-10T05:51:45;3.50;;;2.53;;
80677;SDS011;70042;52.494;5.502;2024-01-10T05:54:11;3.53;;;2.67;;
80677;SDS011;70042;52.494;5.502;2024-01-10T05:56:36;3.28;;;2.50;;
80677;SDS011;70042;52.494;5.502;2024-01-10T05:59:02;2.80;;;2.10;;
80677;SDS011;70042;52.494;5.502;2024-01-10T06:01:27;3.10;;;2.70;;
80677;SDS011;70042;52.494;5.502;2024-01-10T06:03:53;3.63;;;2.80;;
80677;SDS011;70042;52.494;5.502;2024-01-10T06:06:19;2.90;;;2.20;;
80677;SDS011;70042;52.494;5.502;2024-01-10T06:08:44;3.42;;;2.03;;
80677;SDS011;70042;52.494;5.502;2024-01-10T06:11:10;4.03;;;2.50;;
80677;SDS011;70042;52.494;5.502;2024-01-10T06:13:36;3.10;;;2.50;;
80677;SDS011;70042;52.494;5.502;2024-01-10T06:16:04;2.35;;;2.10;;
80677;SDS011;70042;52.494;5.502;2024-01-10T06:18:31;3.00;;;2.15;;
80677;SDS011;70042;52.494;5.502;2024-01-10T06:20:57;3.10;;;2.40;;
80677;SDS011;70042;52.494;5.502;2024-01-10T06:23:23;3.58;;;2.35;;
80677;SDS011;70042;52.494;5.502;2024-01-10T06:25:48;3.78;;;2.33;;
80677;SDS011;70042;52.494;5.502;2024-01-10T06:28:14;2.75;;;2.10;;
80677;SDS011;70042;52.494;5.502;2024-01-10T06:30:39;3.83;;;2.60;;
80677;SDS011;70042;52.494;5.502;2024-01-10T06:33:05;3.17;;;2.42;;
80677;SDS011;70042;52.494;5.502;2024-01-10T06:35:31;3.83;;;2.28;;
80677;SDS011;70042;52.494;5.502;2024-01-10T06:37:57;3.20;;;2.58;;
80677;SDS011;70042;52.494;5.502;2024-01-10T06:40:28;3.75;;;2.58;;
80677;SDS011;70042;52.494;5.502;2024-01-10T06:42:59;3.50;;;2.45;;
80677;SDS011;70042;52.494;5.502;2024-01-10T06:45:24;2.80;;;2.13;;
80677;SDS011;70042;52.494;5.502;2024-01-10T06:47:50;2.92;;;2.08;;
80677;SDS011;70042;52.494;5.502;2024-01-10T06:50:15;3.45;;;2.65;;
80677;SDS011;70042;52.494;5.502;2024-01-10T06:52:41;2.67;;;1.98;;
80677;SDS011;70042;52.494;5.502;2024-01-10T06:55:07;3.55;;;2.60;;
80677;SDS011;70042;52.494;5.502;2024-01-10T06:57:33;3.42;;;2.08;;
80677;SDS011;70042;52.494;5.502;2024-01-10T06:59:58;2.83;;;1.85;;
80677;SDS011;70042;52.494;5.502;2024-01-10T07:02:24;3.20;;;2.40;;
80677;SDS011;70042;52.494;5.502;2024-01-10T07:04:50;3.60;;;2.80;;
80677;SDS011;70042;52.494;5.502;2024-01-10T07:07:15;3.67;;;2.22;;
80677;SDS011;70042;52.494;5.502;2024-01-10T07:09:42;3.45;;;2.75;;
80677;SDS011;70042;52.494;5.502;2024-01-10T07:12:07;3.10;;;2.53;;
80677;SDS011;70042;52.494;5.502;2024-01-10T07:14:33;3.53;;;2.78;;
80677;SDS011;70042;52.494;5.502;2024-01-10T07:16:58;3.42;;;2.40;;
80677;SDS011;70042;52.494;5.502;2024-01-10T07:19:24;3.47;;;2.25;;
80677;SDS011;70042;52.494;5.502;2024-01-10T07:21:50;3.97;;;2.28;;
80677;SDS011;70042;52.494;5.502;2024-01-10T07:24:15;3.53;;;2.47;;
80677;SDS011;70042;52.494;5.502;2024-01-10T07:26:41;3.30;;;2.17;;
80677;SDS011;70042;52.494;5.502;2024-01-10T07:29:06;5.10;;;2.28;;
80677;SDS011;70042;52.494;5.502;2024-01-10T07:31:35;3.08;;;2.20;;
80677;SDS011;70042;52.494;5.502;2024-01-10T07:34:01;2.40;;;1.95;;
80677;SDS011;70042;52.494;5.502;2024-01-10T07:36:29;4.55;;;2.63;;
80677;SDS011;70042;52.494;5.502;2024-01-10T07:38:58;2.88;;;1.90;;
80677;SDS011;70042;52.494;5.502;2024-01-10T07:41:24;3.10;;;2.08;;
80677;SDS011;70042;52.494;5.502;2024-01-10T07:43:50;2.85;;;2.00;;
80677;SDS011;70042;52.494;5.502;2024-01-10T07:46:15;3.60;;;2.33;;
80677;SDS011;70042;52.494;5.502;2024-01-10T07:48:41;2.35;;;1.73;;
80677;SDS011;70042;52.494;5.502;2024-01-10T07:51:07;3.40;;;2.10;;
80677;SDS011;70042;52.494;5.502;2024-01-10T07:53:33;3.10;;;2.33;;
80677;SDS011;70042;52.494;5.502;2024-01-10T07:58:24;2.77;;;2.10;;
80677;SDS011;70042;52.494;5.502;2024-01-10T08:00:49;2.70;;;1.92;;
80677;SDS011;70042;52.494;5.502;2024-01-10T08:03:16;2.67;;;2.10;;
80677;SDS011;70042;52.494;5.502;2024-01-10T08:05:42;3.60;;;2.60;;
80677;SDS011;70042;52.494;5.502;2024-01-10T08:08:08;3.85;;;2.58;;
80677;SDS011;70042;52.494;5.502;2024-01-10T08:10:34;3.55;;;2.33;;
80677;SDS011;70042;52.494;5.502;2024-01-10T08:12:59;4.18;;;2.20;;
80677;SDS011;70042;52.494;5.502;2024-01-10T08:15:25;2.47;;;1.92;;
80677;SDS011;70042;52.494;5.502;2024-01-10T08:17:51;3.35;;;2.00;;
80677;SDS011;70042;52.494;5.502;2024-01-10T08:20:16;3.40;;;2.85;;
80677;SDS011;70042;52.494;5.502;2024-01-10T08:22:48;5.00;;;2.10;;
80677;SDS011;70042;52.494;5.502;2024-01-10T08:25:13;5.97;;;2.40;;
80677;SDS011;70042;52.494;5.502;2024-01-10T08:27:40;3.40;;;2.47;;
80677;SDS011;70042;52.494;5.502;2024-01-10T08:30:07;3.42;;;2.22;;
80677;SDS011;70042;52.494;5.502;2024-01-10T08:32:35;3.40;;;2.33;;
80677;SDS011;70042;52.494;5.502;2024-01-10T08:35:02;3.03;;;2.25;;
80677;SDS011;70042;52.494;5.502;2024-01-10T08:37:29;2.50;;;2.00;;
80677;SDS011;70042;52.494;5.502;2024-01-10T08:39:55;3.70;;;2.50;;
80677;SDS011;70042;52.494;5.502;2024-01-10T08:42:21;5.20;;;2.25;;
80677;SDS011;70042;52.494;5.502;2024-01-10T08:44:46;4.90;;;2.40;;
80677;SDS011;70042;52.494;5.502;2024-01-10T08:47:12;3.20;;;2.47;;
80677;SDS011;70042;52.494;5.502;2024-01-10T08:49:38;5.13;;;2.30;;
80677;SDS011;70042;52.494;5.502;2024-01-10T08:52:04;4.22;;;2.80;;
80677;SDS011;70042;52.494;5.502;2024-01-10T08:54:30;2.83;;;1.95;;
80677;SDS011;70042;52.494;5.502;2024-01-10T08:56:55;3.53;;;2.10;;
80677;SDS011;70042;52.494;5.502;2024-01-10T08:59:21;3.83;;;2.75;;
80677;SDS011;70042;52.494;5.502;2024-01-10T09:01:47;3.10;;;2.35;;
80677;SDS011;70042;52.494;5.502;2024-01-10T09:04:12;4.10;;;2.17;;
80677;SDS011;70042;52.494;5.502;2024-01-10T09:06:38;4.55;;;2.45;;
80677;SDS011;70042;52.494;5.502;2024-01-10T09:09:06;5.30;;;2.75;;
80677;SDS011;70042;52.494;5.502;2024-01-10T09:11:32;2.83;;;2.15;;
80677;SDS011;70042;52.494;5.502;2024-01-10T09:13:58;3.10;;;2.00;;
80677;SDS011;70042;52.494;5.502;2024-01-10T09:16:24;3.92;;;2.17;;
80677;SDS011;70042;52.494;5.502;2024-01-10T09:18:49;3.28;;;2.28;;
80677;SDS011;70042;52.494;5.502;2024-01-10T09:21:19;4.15;;;2.33;;
80677;SDS011;70042;52.494;5.502;2024-01-10T09:23:46;2.53;;;2.20;;
80677;SDS011;70042;52.494;5.502;2024-01-10T09:26:12;3.28;;;2.17;;
80677;SDS011;70042;52.494;5.502;2024-01-10T09:28:38;4.18;;;2.13;;
80677;SDS011;70042;52.494;5.502;2024-01-10T09:31:03;3.45;;;2.00;;
80677;SDS011;70042;52.494;5.502;2024-01-10T09:33:29;4.18;;;2.33;;
80677;SDS011;70042;52.494;5.502;2024-01-10T09:35:57;3.60;;;2.47;;
80677;SDS011;70042;52.494;5.502;2024-01-10T09:38:23;3.67;;;2.17;;
80677;SDS011;70042;52.494;5.502;2024-01-10T09:40:48;3.33;;;2.40;;
80677;SDS011;70042;52.494;5.502;2024-01-10T09:43:17;4.20;;;2.60;;
80677;SDS011;70042;52.494;5.502;2024-01-10T09:45:43;3.25;;;2.33;;
80677;SDS011;70042;52.494;5.502;2024-01-10T09:48:13;5.38;;;2.97;;
80677;SDS011;70042;52.494;5.502;2024-01-10T09:50:40;3.40;;;2.42;;
80677;SDS011;70042;52.494;5.502;2024-01-10T09:55:36;3.60;;;2.33;;
80677;SDS011;70042;52.494;5.502;2024-01-10T09:58:05;2.85;;;2.40;;
80677;SDS011;70042;52.494;5.502;2024-01-10T10:00:31;3.45;;;2.38;;
80677;SDS011;70042;52.494;5.502;2024-01-10T10:02:59;3.13;;;2.33;;
80677;SDS011;70042;52.494;5.502;2024-01-10T10:05:27;4.72;;;2.55;;
80677;SDS011;70042;52.494;5.502;2024-01-10T10:07:52;4.78;;;2.70;;
80677;SDS011;70042;52.494;5.502;2024-01-10T10:10:18;3.55;;;2.58;;
80677;SDS011;70042;52.494;5.502;2024-01-10T10:12:45;3.85;;;2.50;;
80677;SDS011;70042;52.494;5.502;2024-01-10T10:15:11;4.57;;;2.17;;
80677;SDS011;70042;52.494;5.502;2024-01-10T10:17:42;3.72;;;2.20;;
80677;SDS011;70042;52.494;5.502;2024-01-10T10:25:30;4.32;;;3.00;;
80677;SDS011;70042;52.494;5.502;2024-01-10T10:28:01;3.03;;;2.30;;
80677;SDS011;70042;52.494;5.502;2024-01-10T10:30:28;3.53;;;2.50;;
80677;SDS011;70042;52.494;5.502;2024-01-10T10:32:55;4.18;;;2.25;;
80677;SDS011;70042;52.494;5.502;2024-01-10T10:35:21;3.97;;;2.40;;
80677;SDS011;70042;52.494;5.502;2024-01-10T10:37:51;3.15;;;2.30;;
80677;SDS011;70042;52.494;5.502;2024-01-10T10:40:17;3.55;;;2.58;;
80677;SDS011;70042;52.494;5.502;2024-01-10T10:42:44;3.75;;;2.30;;
80677;SDS011;70042;52.494;5.502;2024-01-10T10:45:14;3.17;;;2.35;;
80677;SDS011;70042;52.494;5.502;2024-01-10T10:47:44;5.00;;;2.30;;
80677;SDS011;70042;52.494;5.502;2024-01-10T10:50:21;3.60;;;2.30;;
80677;SDS011;70042;52.494;5.502;2024-01-10T10:52:48;3.60;;;2.50;;
80677;SDS011;70042;52.494;5.502;2024-01-10T10:55:15;2.83;;;2.55;;
80677;SDS011;70042;52.494;5.502;2024-01-10T10:57:44;2.90;;;2.00;;
80677;SDS011;70042;52.494;5.502;2024-01-10T11:00:12;3.65;;;2.60;;
80677;SDS011;70042;52.494;5.502;2024-01-10T11:02:40;5.43;;;3.00;;
80677;SDS011;70042;52.494;5.502;2024-01-10T11:05:06;3.05;;;1.98;;
80677;SDS011;70042;52.494;5.502;2024-01-10T11:07:40;3.47;;;2.35;;
80677;SDS011;70042;52.494;5.502;2024-01-10T11:10:10;2.80;;;2.08;;
80677;SDS011;70042;52.494;5.502;2024-01-10T11:24:23;4.30;;;2.38;;
80677;SDS011;70042;52.494;5.502;2024-01-10T11:26:49;4.55;;;2.17;;
80677;SDS011;70042;52.494;5.502;2024-01-10T11:29:15;3.72;;;2.58;;
80677;SDS011;70042;52.494;5.502;2024-01-10T11:31:41;2.50;;;2.10;;
80677;SDS011;70042;52.494;5.502;2024-01-10T11:34:06;3.35;;;2.28;;
80677;SDS011;70042;52.494;5.502;2024-01-10T11:36:33;2.88;;;1.98;;
80677;SDS011;70042;52.494;5.502;2024-01-10T11:38:59;2.80;;;2.17;;
80677;SDS011;70042;52.494;5.502;2024-01-10T11:46:37;4.38;;;2.42;;
80677;SDS011;70042;52.494;5.502;2024-01-10T11:49:10;3.58;;;2.15;;
80677;SDS011;70042;52.494;5.502;2024-01-10T11:51:38;3.78;;;2.42;;
80677;SDS011;70042;52.494;5.502;2024-01-10T11:54:06;2.50;;;1.98;;
80677;SDS011;70042;52.494;5.502;2024-01-10T11:56:39;3.95;;;2.45;;
80677;SDS011;70042;52.494;5.502;2024-01-10T11:59:10;4.05;;;2.15;;
80677;SDS011;70042;52.494;5.502;2024-01-10T12:01:37;3.05;;;2.08;;
80677;SDS011;70042;52.494;5.502;2024-01-10T12:04:03;3.28;;;2.20;;
80677;SDS011;70042;52.494;5.502;2024-01-10T12:06:30;4.93;;;2.30;;
80677;SDS011;70042;52.494;5.502;2024-01-10T12:08:56;4.78;;;2.50;;
80677;SDS011;70042;52.494;5.502;2024-01-10T12:11:22;3.00;;;1.90;;
80677;SDS011;70042;52.494;5.502;2024-01-10T12:13:48;3.63;;;2.30;;
80677;SDS011;70042;52.494;5.502;2024-01-10T12:16:14;3.08;;;1.85;;
80677;SDS011;70042;52.494;5.502;2024-01-10T12:18:40;2.45;;;1.70;;
80677;SDS011;70042;52.494;5.502;2024-01-10T12:21:05;3.17;;;2.28;;
80677;SDS011;70042;52.494;5.502;2024-01-10T12:23:33;3.10;;;2.00;;
80677;SDS011;70042;52.494;5.502;2024-01-10T12:26:03;3.30;;;2.35;;
80677;SDS011;70042;52.494;5.502;2024-01-10T12:28:33;2.78;;;1.85;;
80677;SDS011;70042;52.494;5.502;2024-01-10T12:30:59;5.38;;;2.38;;
80677;SDS011;70042;52.494;5.502;2024-01-10T12:33:25;4.82;;;2.42;;
80677;SDS011;70042;52.494;5.502;2024-01-10T12:38:29;2.67;;;1.95;;
80677;SDS011;70042;52.494;5.502;2024-01-10T12:40:58;3.42;;;1.77;;
80677;SDS011;70042;52.494;5.502;2024-01-10T12:43:23;2.72;;;1.98;;
80677;SDS011;70042;52.494;5.502;2024-01-10T12:46:02;2.85;;;1.83;;
80677;SDS011;70042;52.494;5.502;2024-01-10T12:48:28;2.55;;;1.83;;
80677;SDS011;70042;52.494;5.502;2024-01-10T12:50:54;2.88;;;1.90;;
80677;SDS011;70042;52.494;5.502;2024-01-10T12:53:19;2.88;;;2.10;;
80677;SDS011;70042;52.494;5.502;2024-01-10T12:55:46;2.63;;;1.95;;
80677;SDS011;70042;52.494;5.502;2024-01-10T13:00:37;2.30;;;1.77;;
80677;SDS011;70042;52.494;5.502;2024-01-10T13:03:02;2.60;;;1.70;;
80677;SDS011;70042;52.494;5.502;2024-01-10T13:05:28;2.88;;;1.80;;
80677;SDS011;70042;52.494;5.502;2024-01-10T13:07:54;2.33;;;1.80;;
80677;SDS011;70042;52.494;5.502;2024-01-10T13:10:20;2.70;;;1.85;;
80677;SDS011;70042;52.494;5.502;2024-01-10T13:12:45;2.80;;;2.05;;
80677;SDS011;70042;52.494;5.502;2024-01-10T13:15:12;2.67;;;1.83;;
80677;SDS011;70042;52.494;5.502;2024-01-10T13:17:37;3.08;;;1.90;;
80677;SDS011;70042;52.494;5.502;2024-01-10T13:20:03;2.40;;;1.75;;
80677;SDS011;70042;52.494;5.502;2024-01-10T13:22:29;2.70;;;1.80;;
80677;SDS011;70042;52.494;5.502;2024-01-10T13:24:54;4.07;;;2.20;;
80677;SDS011;70042;52.494;5.502;2024-01-10T13:27:23;3.22;;;2.10;;
80677;SDS011;70042;52.494;5.502;2024-01-10T13:29:52;3.03;;;1.88;;
80677;SDS011;70042;52.494;5.502;2024-01-10T13:32:18;2.33;;;1.73;;
80677;SDS011;70042;52.494;5.502;2024-01-10T13:34:43;3.13;;;2.20;;
80677;SDS011;70042;52.494;5.502;2024-01-10T13:37:09;3.70;;;1.85;;
80677;SDS011;70042;52.494;5.502;2024-01-10T13:39:37;3.72;;;2.00;;
80677;SDS011;70042;52.494;5.502;2024-01-10T13:42:03;3.40;;;1.90;;
80677;SDS011;70042;52.494;5.502;2024-01-10T13:44:31;2.90;;;1.55;;
80677;SDS011;70042;52.494;5.502;2024-01-10T13:46:56;2.55;;;1.70;;
80677;SDS011;70042;52.494;5.502;2024-01-10T13:49:22;2.95;;;1.80;;
80677;SDS011;70042;52.494;5.502;2024-01-10T13:51:47;2.85;;;1.90;;
80677;SDS011;70042;52.494;5.502;2024-01-10T13:54:13;2.67;;;1.85;;
80677;SDS011;70042;52.494;5.502;2024-01-10T13:56:41;2.65;;;2.00;;
80677;SDS011;70042;52.494;5.502;2024-01-10T13:59:07;2.45;;;1.90;;
80677;SDS011;70042;52.494;5.502;2024-01-10T14:01:32;3.58;;;1.88;;
80677;SDS011;70042;52.494;5.502;2024-01-10T14:03:58;2.58;;;1.65;;
80677;SDS011;70042;52.494;5.502;2024-01-10T14:06:23;2.53;;;1.73;;
80677;SDS011;70042;52.494;5.502;2024-01-10T14:08:49;2.10;;;1.60;;
80677;SDS011;70042;52.494;5.502;2024-01-10T14:11:15;2.90;;;1.85;;
80677;SDS011;70042;52.494;5.502;2024-01-10T14:13:40;2.20;;;1.50;;
80677;SDS011;70042;52.494;5.502;2024-01-10T14:16:06;2.40;;;1.80;;
80677;SDS011;70042;52.494;5.502;2024-01-10T14:18:31;2.97;;;2.00;;
80677;SDS011;70042;52.494;5.502;2024-01-10T14:20:57;3.58;;;1.70;;
80677;SDS011;70042;52.494;5.502;2024-01-10T14:25:50;2.20;;;1.88;;
80677;SDS011;70042;52.494;5.502;2024-01-10T14:28:17;2.67;;;1.63;;
80677;SDS011;70042;52.494;5.502;2024-01-10T14:30:43;2.38;;;1.67;;
80677;SDS011;70042;52.494;5.502;2024-01-10T14:33:09;3.78;;;1.63;;
80677;SDS011;70042;52.494;5.502;2024-01-10T14:35:34;2.05;;;1.60;;
80677;SDS011;70042;52.494;5.502;2024-01-10T14:38:00;2.40;;;1.70;;
80677;SDS011;70042;52.494;5.502;2024-01-10T14:40:25;3.42;;;1.85;;
80677;SDS011;70042;52.494;5.502;2024-01-10T14:42:50;2.40;;;1.60;;
80677;SDS011;70042;52.494;5.502;2024-01-10T14:45:16;2.60;;;1.70;;
80677;SDS011;70042;52.494;5.502;2024-01-10T14:47:42;3.03;;;1.92;;
80677;SDS011;70042;52.494;5.502;2024-01-10T14:50:08;2.38;;;1.65;;
80677;SDS011;70042;52.494;5.502;2024-01-10T14:52:33;2.28;;;1.80;;
80677;SDS011;70042;52.494;5.502;2024-01-10T14:54:59;2.58;;;1.60;;
80677;SDS011;70042;52.494;5.502;2024-01-10T14:57:26;2.65;;;1.98;;
80677;SDS011;70042;52.494;5.502;2024-01-10T14:59:52;3.33;;;2.05;;
80677;SDS011;70042;52.494;5.502;2024-01-10T15:02:17;2.10;;;1.63;;
80677;SDS011;70042;52.494;5.502;2024-01-10T15:04:43;4.32;;;1.92;;
80677;SDS011;70042;52.494;5.502;2024-01-10T15:07:10;2.72;;;1.88;;
80677;SDS011;70042;52.494;5.502;2024-01-10T15:09:36;2.55;;;1.50;;
80677;SDS011;70042;52.494;5.502;2024-01-10T15:12:02;2.88;;;1.88;;
80677;SDS011;70042;52.494;5.502;2024-01-10T15:14:32;2.88;;;1.58;;
80677;SDS011;70042;52.494;5.502;2024-01-10T15:16:58;5.18;;;2.10;;
80677;SDS011;70042;52.494;5.502;2024-01-10T15:19:25;3.08;;;1.83;;
80677;SDS011;70042;52.494;5.502;2024-01-10T15:21:51;3.95;;;1.80;;
80677;SDS011;70042;52.494;5.502;2024-01-10T15:24:16;2.67;;;1.55;;
80677;SDS011;70042;52.494;5.502;2024-01-10T15:29:08;3.10;;;1.50;;